sensor_id;sensor_type;location;lat;lon;timestamp;pressure;altitude;pressure_sealevel;temperature;humidity
8477;BME280;4275;42.854;23.222;2024-02-14T00:34:05;107969.53;;;-141.02;100.00
8477;BME280;4275;42.854;23.222;2024-02-14T00:36:31;107969.53;;;-141.02;100.00
8477;BME280;4275;42.854;23.222;2024-02-14T00:38:58;107969.53;;;-141.02;100.00
8477;BME280;4275;42.854;23.222;2024-02-14T00:41:25;107969.53;;;-141.02;100.00
8477;BME280;4275;42.854;23.222;2024-02-14T00:43:55;107969.53;;;-141.02;100.00
8477;BME280;4275;42.854;23.222;2024-02-14T00:46:22;107971.50;;;-141.02;100.00
8477;BME280;4275;42.854;23.222;2024-02-14T00:48:48;107971.50;;;-141.02;100.00
8477;BME280;4275;42.854;23.222;2024-02-14T00:51:17;107971.50;;;-141.02;100.00
8477;BME280;4275;42.854;23.222;2024-02-14T00:53:44;107971.50;;;-141.02;100.00
8477;BME280;4275;42.854;23.222;2024-02-14T00:56:11;107971.50;;;-141.02;100.00
8477;BME280;4275;42.854;23.222;2024-02-14T00:58:38;107971.50;;;-141.02;100.00
8477;BME280;4275;42.854;23.222;2024-02-14T01:01:05;107971.50;;;-141.02;100.00
8477;BME280;4275;42.854;23.222;2024-02-14T01:03:31;107971.50;;;-141.02;100.00
8477;BME280;4275;42.854;23.222;2024-02-14T01:05:58;107971.50;;;-141.02;100.00
8477;BME280;4275;42.854;23.222;2024-02-14T01:08:26;107971.50;;;-141.02;100.00
8477;BME280;4275;42.854;23.222;2024-02-14T01:10:54;107971.50;;;-141.02;100.00
8477;BME280;4275;42.854;23.222;2024-02-14T01:13:21;107969.53;;;-141.02;100.00
8477;BME280;4275;42.854;23.222;2024-02-14T01:15:48;107969.53;;;-141.02;100.00
8477;BME280;4275;42.854;23.222;2024-02-14T01:18:15;107969.53;;;-141.02;100.00
8477;BME280;4275;42.854;23.222;2024-02-14T01:20:42;107969.53;;;-141.02;100.00
8477;BME280;4275;42.854;23.222;2024-02-14T01:23:09;107969.53;;;-141.02;100.00
8477;BME280;4275;42.854;23.222;2024-02-14T01:25:37;107969.53;;;-141.02;100.00
8477;BME280;4275;42.854;23.222;2024-02-14T01:28:04;107969.53;;;-141.02;100.00
8477;BME280;4275;42.854;23.222;2024-02-14T01:30:33;107969.53;;;-141.02;100.00
8477;BME280;4275;42.854;23.222;2024-02-14T01:33:00;107969.53;;;-141.02;100.00
8477;BME280;4275;42.854;23.222;2024-02-14T01:35:29;107969.53;;;-141.02;100.00
8477;BME280;4275;42.854;23.222;2024-02-14T01:37:56;107969.53;;;-141.02;100.00
8477;BME280;4275;42.854;23.222;2024-02-14T01:40:23;107969.53;;;-141.02;100.00
8477;BME280;4275;42.854;23.222;2024-02-14T01:42:51;107969.53;;;-141.02;100.00
8477;BME280;4275;42.854;23.222;2024-02-14T01:45:18;107969.53;;;-141.02;100.00
8477;BME280;4275;42.854;23.222;2024-02-14T01:47:45;107969.53;;;-141.02;100.00
8477;BME280;4275;42.854;23.222;2024-02-14T01:50:12;107969.53;;;-141.02;100.00
8477;BME280;4275;42.854;23.222;2024-02-14T01:52:39;107969.53;;;-141.02;100.00
8477;BME280;4275;42.854;23.222;2024-02-14T01:55:08;107969.53;;;-141.02;100.00
8477;BME280;4275;42.854;23.222;2024-02-14T01:57:38;107969.53;;;-141.02;100.00
8477;BME280;4275;42.854;23.222;2024-02-14T02:00:07;107969.53;;;-141.02;100.00
8477;BME280;4275;42.854;23.222;2024-02-14T02:02:35;107969.53;;;-141.02;100.00
8477;BME280;4275;42.854;23.222;2024-02-14T02:05:03;107969.53;;;-141.02;100.00
8477;BME280;4275;42.854;23.222;2024-02-14T02:07:31;107719.09;;;-141.02;100.00
8477;BME280;4275;42.854;23.222;2024-02-14T02:09:58;107719.09;;;-141.02;100.00
8477;BME280;4275;42.854;23.222;2024-02-14T02:12:26;107719.09;;;-141.02;100.00
8477;BME280;4275;42.854;23.222;2024-02-14T02:14:53;107719.09;;;-141.02;100.00
8477;BME280;4275;42.854;23.222;2024-02-14T02:17:22;107719.09;;;-141.02;100.00
8477;BME280;4275;42.854;23.222;2024-02-14T02:19:49;107719.09;;;-141.02;100.00
8477;BME280;4275;42.854;23.222;2024-02-14T02:22:18;107719.09;;;-141.02;100.00
8477;BME280;4275;42.854;23.222;2024-02-14T02:24:46;107719.09;;;-141.02;100.00
8477;BME280;4275;42.854;23.222;2024-02-14T02:27:13;107719.09;;;-141.02;100.00
8477;BME280;4275;42.854;23.222;2024-02-14T02:29:41;107719.09;;;-141.02;100.00
8477;BME280;4275;42.854;23.222;2024-02-14T02:32:08;107719.09;;;-141.02;100.00
8477;BME280;4275;42.854;23.222;2024-02-14T02:34:36;107719.09;;;-141.02;100.00
8477;BME280;4275;42.854;23.222;2024-02-14T02:37:04;107719.09;;;-141.02;100.00
8477;BME280;4275;42.854;23.222;2024-02-14T02:39:34;107719.09;;;-141.02;100.00
8477;BME280;4275;42.854;23.222;2024-02-14T02:42:03;107719.09;;;-141.02;100.00
8477;BME280;4275;42.854;23.222;2024-02-14T02:44:31;107719.09;;;-141.02;100.00
8477;BME280;4275;42.854;23.222;2024-02-14T02:46:58;107468.69;;;-141.02;100.00
8477;BME280;4275;42.854;23.222;2024-02-14T02:49:26;107468.69;;;-141.02;100.00
8477;BME280;4275;42.854;23.222;2024-02-14T02:51:54;107719.09;;;-141.02;100.00
8477;BME280;4275;42.854;23.222;2024-02-14T02:54:21;107468.69;;;-141.02;100.00
8477;BME280;4275;42.854;23.222;2024-02-14T02:56:49;107468.69;;;-141.02;100.00
8477;BME280;4275;42.854;23.222;2024-02-14T02:59:17;107468.69;;;-141.02;100.00
8477;BME280;4275;42.854;23.222;2024-02-14T03:01:44;107468.69;;;-141.02;100.00
8477;BME280;4275;42.854;23.222;2024-02-14T03:04:11;107468.69;;;-141.02;100.00
8477;BME280;4275;42.854;23.222;2024-02-14T03:06:40;107468.69;;;-141.02;100.00
8477;BME280;4275;42.854;23.222;2024-02-14T03:09:08;107218.31;;;-141.02;100.00
8477;BME280;4275;42.854;23.222;2024-02-14T03:11:35;107218.31;;;-141.02;100.00
8477;BME280;4275;42.854;23.222;2024-02-14T03:14:03;107218.31;;;-141.02;100.00
8477;BME280;4275;42.854;23.222;2024-02-14T03:16:32;107218.31;;;-141.02;100.00
8477;BME280;4275;42.854;23.222;2024-02-14T03:18:59;107218.31;;;-141.02;100.00
8477;BME280;4275;42.854;23.222;2024-02-14T03:21:26;106967.91;;;-141.02;100.00
8477;BME280;4275;42.854;23.222;2024-02-14T03:23:54;106967.91;;;-141.02;100.00
8477;BME280;4275;42.854;23.222;2024-02-14T03:26:21;106967.91;;;-141.02;100.00
8477;BME280;4275;42.854;23.222;2024-02-14T03:28:48;106967.91;;;-141.02;100.00
8477;BME280;4275;42.854;23.222;2024-02-14T03:31:15;106967.91;;;-141.02;100.00
8477;BME280;4275;42.854;23.222;2024-02-14T03:33:43;106967.91;;;-141.02;100.00
8477;BME280;4275;42.854;23.222;2024-02-14T03:36:10;106967.91;;;-141.02;100.00
8477;BME280;4275;42.854;23.222;2024-02-14T03:38:37;106717.56;;;-141.02;100.00
8477;BME280;4275;42.854;23.222;2024-02-14T03:41:05;106967.91;;;-141.02;100.00
8477;BME280;4275;42.854;23.222;2024-02-14T03:43:32;106967.91;;;-141.02;100.00
8477;BME280;4275;42.854;23.222;2024-02-14T03:45:59;106717.56;;;-141.02;100.00
8477;BME280;4275;42.854;23.222;2024-02-14T03:48:26;106717.56;;;-141.02;100.00
8477;BME280;4275;42.854;23.222;2024-02-14T03:50:54;106717.56;;;-141.02;100.00
8477;BME280;4275;42.854;23.222;2024-02-14T03:53:22;106717.56;;;-141.02;100.00
8477;BME280;4275;42.854;23.222;2024-02-14T03:55:49;106717.56;;;-141.02;100.00
8477;BME280;4275;42.854;23.222;2024-02-14T03:58:18;106717.56;;;-141.02;100.00
8477;BME280;4275;42.854;23.222;2024-02-14T04:00:48;106717.56;;;-141.02;100.00
8477;BME280;4275;42.854;23.222;2024-02-14T04:03:16;106717.56;;;-141.02;100.00
8477;BME280;4275;42.854;23.222;2024-02-14T04:05:43;106717.56;;;-141.02;100.00
8477;BME280;4275;42.854;23.222;2024-02-14T04:08:11;106717.56;;;-141.02;100.00
8477;BME280;4275;42.854;23.222;2024-02-14T04:10:39;106717.56;;;-141.02;100.00
8477;BME280;4275;42.854;23.222;2024-02-14T04:13:06;106717.56;;;-141.02;100.00
8477;BME280;4275;42.854;23.222;2024-02-14T04:15:33;106717.56;;;-141.02;100.00
8477;BME280;4275;42.854;23.222;2024-02-14T04:17:59;106717.56;;;-141.02;100.00
8477;BME280;4275;42.854;23.222;2024-02-14T04:20:28;106717.56;;;-141.02;100.00
8477;BME280;4275;42.854;23.222;2024-02-14T04:22:56;106717.56;;;-141.02;100.00
8477;BME280;4275;42.854;23.222;2024-02-14T04:25:25;106717.56;;;-141.02;100.00
8477;BME280;4275;42.854;23.222;2024-02-14T04:27:52;106467.22;;;-141.02;100.00
8477;BME280;4275;42.854;23.222;2024-02-14T04:30:19;106467.22;;;-141.02;100.00
8477;BME280;4275;42.854;23.222;2024-02-14T04:32:46;106467.22;;;-141.02;100.00
8477;BME280;4275;42.854;23.222;2024-02-14T04:35:14;106467.22;;;-141.02;100.00
8477;BME280;4275;42.854;23.222;2024-02-14T04:37:49;106467.22;;;-141.02;100.00
8477;BME280;4275;42.854;23.222;2024-02-14T04:40:17;106216.91;;;-141.02;100.00
8477;BME280;4275;42.854;23.222;2024-02-14T04:42:46;106216.91;;;-141.02;100.00
8477;BME280;4275;42.854;23.222;2024-02-14T04:45:13;106216.91;;;-141.02;100.00
8477;BME280;4275;42.854;23.222;2024-02-14T04:47:40;106216.91;;;-141.02;100.00
8477;BME280;4275;42.854;23.222;2024-02-14T04:50:12;106216.91;;;-141.02;100.00
8477;BME280;4275;42.854;23.222;2024-02-14T04:52:39;105966.59;;;-141.02;100.00
8477;BME280;4275;42.854;23.222;2024-02-14T04:55:07;106216.91;;;-141.02;100.00
8477;BME280;4275;42.854;23.222;2024-02-14T04:57:34;105966.59;;;-141.02;100.00
8477;BME280;4275;42.854;23.222;2024-02-14T05:00:05;105966.59;;;-141.02;100.00
8477;BME280;4275;42.854;23.222;2024-02-14T05:02:34;105966.59;;;-141.02;100.00
8477;BME280;4275;42.854;23.222;2024-02-14T05:05:01;105966.59;;;-141.02;100.00
8477;BME280;4275;42.854;23.222;2024-02-14T05:07:28;105716.31;;;-141.02;100.00
8477;BME280;4275;42.854;23.222;2024-02-14T05:09:55;105716.31;;;-141.02;100.00
8477;BME280;4275;42.854;23.222;2024-02-14T05:15:42;105716.31;;;-141.02;100.00
8477;BME280;4275;42.854;23.222;2024-02-14T05:18:09;105716.31;;;-141.02;100.00
8477;BME280;4275;42.854;23.222;2024-02-14T05:20:36;105716.31;;;-141.02;100.00
8477;BME280;4275;42.854;23.222;2024-02-14T05:23:04;105466.03;;;-141.02;100.00
8477;BME280;4275;42.854;23.222;2024-02-14T05:25:31;105716.31;;;-141.02;100.00
8477;BME280;4275;42.854;23.222;2024-02-14T05:27:58;105466.03;;;-141.02;100.00
8477;BME280;4275;42.854;23.222;2024-02-14T05:30:26;105466.03;;;-141.02;100.00
8477;BME280;4275;42.854;23.222;2024-02-14T05:32:55;105716.31;;;-141.02;100.00
8477;BME280;4275;42.854;23.222;2024-02-14T05:35:22;105466.03;;;-141.02;100.00
8477;BME280;4275;42.854;23.222;2024-02-14T05:37:49;105466.03;;;-141.02;100.00
8477;BME280;4275;42.854;23.222;2024-02-14T05:40:16;105466.03;;;-141.02;100.00
8477;BME280;4275;42.854;23.222;2024-02-14T05:45:53;105466.03;;;-141.02;100.00
8477;BME280;4275;42.854;23.222;2024-02-14T05:48:22;105466.03;;;-141.02;100.00
8477;BME280;4275;42.854;23.222;2024-02-14T05:51:01;105215.78;;;-141.02;100.00
8477;BME280;4275;42.854;23.222;2024-02-14T05:53:28;105215.78;;;-141.02;100.00
8477;BME280;4275;42.854;23.222;2024-02-14T05:55:55;105215.78;;;-141.02;100.00
8477;BME280;4275;42.854;23.222;2024-02-14T05:58:21;105215.78;;;-141.02;100.00
8477;BME280;4275;42.854;23.222;2024-02-14T06:00:49;105215.78;;;-141.02;100.00
8477;BME280;4275;42.854;23.222;2024-02-14T06:03:16;105215.78;;;-141.02;100.00
8477;BME280;4275;42.854;23.222;2024-02-14T06:05:45;105215.78;;;-141.02;100.00
8477;BME280;4275;42.854;23.222;2024-02-14T06:08:12;105215.78;;;-141.02;100.00
8477;BME280;4275;42.854;23.222;2024-02-14T06:10:39;104965.56;;;-141.02;100.00
8477;BME280;4275;42.854;23.222;2024-02-14T06:13:06;104965.56;;;-141.02;100.00
8477;BME280;4275;42.854;23.222;2024-02-14T06:15:32;104965.56;;;-141.02;100.00
8477;BME280;4275;42.854;23.222;2024-02-14T06:18:00;104965.56;;;-141.02;100.00
8477;BME280;4275;42.854;23.222;2024-02-14T06:20:53;104965.56;;;-141.02;100.00
8477;BME280;4275;42.854;23.222;2024-02-14T06:24:04;104965.56;;;-141.02;100.00
8477;BME280;4275;42.854;23.222;2024-02-14T06:26:32;104965.56;;;-141.02;100.00
8477;BME280;4275;42.854;23.222;2024-02-14T06:29:02;104965.56;;;-141.02;100.00
8477;BME280;4275;42.854;23.222;2024-02-14T06:31:28;104965.56;;;-141.02;100.00
8477;BME280;4275;42.854;23.222;2024-02-14T06:33:55;104965.56;;;-141.02;100.00
8477;BME280;4275;42.854;23.222;2024-02-14T06:36:24;104965.56;;;-141.02;100.00
8477;BME280;4275;42.854;23.222;2024-02-14T06:38:50;104965.56;;;-141.02;100.00
8477;BME280;4275;42.854;23.222;2024-02-14T06:41:18;104715.34;;;-141.02;100.00
8477;BME280;4275;42.854;23.222;2024-02-14T06:43:46;104465.16;;;-141.02;100.00
8477;BME280;4275;42.854;23.222;2024-02-14T06:46:13;104465.16;;;-141.02;100.00
8477;BME280;4275;42.854;23.222;2024-02-14T06:48:40;104214.97;;;-141.02;100.00
8477;BME280;4275;42.854;23.222;2024-02-14T06:51:07;104214.97;;;-141.02;100.00
8477;BME280;4275;42.854;23.222;2024-02-14T06:53:35;103964.81;;;-141.02;100.00
8477;BME280;4275;42.854;23.222;2024-02-14T06:56:02;103964.81;;;-141.02;100.00
8477;BME280;4275;42.854;23.222;2024-02-14T07:01:51;103964.81;;;-141.02;100.00
8477;BME280;4275;42.854;23.222;2024-02-14T07:04:20;103714.66;;;-141.02;100.00
8477;BME280;4275;42.854;23.222;2024-02-14T07:06:51;103714.66;;;-141.02;100.00
8477;BME280;4275;42.854;23.222;2024-02-14T07:09:19;103714.66;;;-141.02;100.00
8477;BME280;4275;42.854;23.222;2024-02-14T07:11:46;103464.53;;;-141.02;100.00
8477;BME280;4275;42.854;23.222;2024-02-14T07:14:13;103464.53;;;-141.02;100.00
8477;BME280;4275;42.854;23.222;2024-02-14T07:16:40;103464.53;;;-141.02;100.00
8477;BME280;4275;42.854;23.222;2024-02-14T07:19:07;103464.53;;;-141.02;100.00
8477;BME280;4275;42.854;23.222;2024-02-14T07:21:34;103464.53;;;-141.02;100.00
8477;BME280;4275;42.854;23.222;2024-02-14T07:24:04;103214.44;;;-141.02;100.00
8477;BME280;4275;42.854;23.222;2024-02-14T07:26:32;103214.44;;;-141.02;100.00
8477;BME280;4275;42.854;23.222;2024-02-14T07:28:59;103214.44;;;-141.02;100.00
8477;BME280;4275;42.854;23.222;2024-02-14T07:31:29;102964.34;;;-141.02;100.00
8477;BME280;4275;42.854;23.222;2024-02-14T07:33:58;102964.34;;;-141.02;100.00
8477;BME280;4275;42.854;23.222;2024-02-14T07:36:26;102964.34;;;-141.02;100.00
8477;BME280;4275;42.854;23.222;2024-02-14T07:42:15;103214.44;;;-141.02;100.00
8477;BME280;4275;42.854;23.222;2024-02-14T07:44:42;103214.44;;;-141.02;100.00
8477;BME280;4275;42.854;23.222;2024-02-14T07:50:28;102964.34;;;-141.02;100.00
8477;BME280;4275;42.854;23.222;2024-02-14T07:56:17;102964.34;;;-141.02;100.00
8477;BME280;4275;42.854;23.222;2024-02-14T07:58:46;102714.25;;;-141.02;100.00
8477;BME280;4275;42.854;23.222;2024-02-14T08:01:13;102464.22;;;-141.02;100.00
8477;BME280;4275;42.854;23.222;2024-02-14T08:03:40;102464.22;;;-141.02;100.00
8477;BME280;4275;42.854;23.222;2024-02-14T08:06:07;102464.22;;;-141.02;100.00
8477;BME280;4275;42.854;23.222;2024-02-14T08:08:35;101964.16;;;-141.02;100.00
8477;BME280;4275;42.854;23.222;2024-02-14T08:11:01;101964.16;;;-141.02;100.00
8477;BME280;4275;42.854;23.222;2024-02-14T08:13:28;101714.16;;;-141.02;100.00
8477;BME280;4275;42.854;23.222;2024-02-14T08:15:57;101714.16;;;-141.02;100.00
8477;BME280;4275;42.854;23.222;2024-02-14T08:18:24;101714.16;;;-141.02;100.00
8477;BME280;4275;42.854;23.222;2024-02-14T08:20:52;101714.16;;;-141.02;100.00
8477;BME280;4275;42.854;23.222;2024-02-14T08:23:20;101464.19;;;-141.02;100.00
8477;BME280;4275;42.854;23.222;2024-02-14T08:25:46;101464.19;;;-141.02;100.00
8477;BME280;4275;42.854;23.222;2024-02-14T08:28:14;101214.22;;;-141.02;100.00
8477;BME280;4275;42.854;23.222;2024-02-14T08:30:43;101464.19;;;-141.02;100.00
8477;BME280;4275;42.854;23.222;2024-02-14T08:33:11;101214.22;;;-141.02;100.00
8477;BME280;4275;42.854;23.222;2024-02-14T08:35:38;100964.25;;;-141.02;100.00
8477;BME280;4275;42.854;23.222;2024-02-14T08:38:05;101214.22;;;-141.02;100.00
8477;BME280;4275;42.854;23.222;2024-02-14T08:40:33;101214.22;;;-141.02;100.00
8477;BME280;4275;42.854;23.222;2024-02-14T08:43:00;100964.25;;;-141.02;100.00
8477;BME280;4275;42.854;23.222;2024-02-14T08:45:28;101214.22;;;-141.02;100.00
8477;BME280;4275;42.854;23.222;2024-02-14T08:47:55;101214.22;;;-141.02;100.00
8477;BME280;4275;42.854;23.222;2024-02-14T08:50:24;101214.22;;;-141.02;100.00
8477;BME280;4275;42.854;23.222;2024-02-14T08:52:50;100964.25;;;-141.02;100.00
8477;BME280;4275;42.854;23.222;2024-02-14T08:55:17;100964.25;;;-141.02;100.00
8477;BME280;4275;42.854;23.222;2024-02-14T08:57:44;100464.44;;;-141.02;100.00
8477;BME280;4275;42.854;23.222;2024-02-14T09:00:13;100464.44;;;-141.02;100.00
8477;BME280;4275;42.854;23.222;2024-02-14T09:02:45;100714.34;;;-141.02;100.00
8477;BME280;4275;42.854;23.222;2024-02-14T09:05:13;100964.25;;;-141.02;100.00
8477;BME280;4275;42.854;23.222;2024-02-14T09:07:43;100714.34;;;-141.02;100.00
8477;BME280;4275;42.854;23.222;2024-02-14T09:10:10;100964.25;;;-141.02;100.00
8477;BME280;4275;42.854;23.222;2024-02-14T09:12:38;100964.25;;;-141.02;100.00
8477;BME280;4275;42.854;23.222;2024-02-14T09:15:07;100964.25;;;-141.02;100.00
8477;BME280;4275;42.854;23.222;2024-02-14T09:17:34;100214.53;;;-141.02;100.00
8477;BME280;4275;42.854;23.222;2024-02-14T09:20:30;100464.44;;;-141.02;100.00
8477;BME280;4275;42.854;23.222;2024-02-14T09:22:59;100214.53;;;-141.02;100.00
8477;BME280;4275;42.854;23.222;2024-02-14T09:25:26;100214.53;;;-141.02;100.00
8477;BME280;4275;42.854;23.222;2024-02-14T09:27:53;99714.81;;;-141.02;100.00
8477;BME280;4275;42.854;23.222;2024-02-14T09:30:20;99714.81;;;-141.02;100.00
8477;BME280;4275;42.854;23.222;2024-02-14T09:32:47;99714.81;;;-141.02;100.00
8477;BME280;4275;42.854;23.222;2024-02-14T09:35:16;99714.81;;;-141.02;100.00
8477;BME280;4275;42.854;23.222;2024-02-14T09:37:43;99215.16;;;-141.02;100.00
8477;BME280;4275;42.854;23.222;2024-02-14T09:40:11;99215.16;;;-141.02;100.00
8477;BME280;4275;42.854;23.222;2024-02-14T09:42:44;99215.16;;;-141.02;100.00
8477;BME280;4275;42.854;23.222;2024-02-14T09:48:21;99714.81;;;-141.02;100.00
8477;BME280;4275;42.854;23.222;2024-02-14T09:50:48;99215.16;;;-141.02;100.00
8477;BME280;4275;42.854;23.222;2024-02-14T09:53:16;99464.97;;;-141.02;100.00
8477;BME280;4275;42.854;23.222;2024-02-14T09:55:45;99714.81;;;-141.02;100.00
8477;BME280;4275;42.854;23.222;2024-02-14T09:58:13;99964.66;;;-141.02;100.00
8477;BME280;4275;42.854;23.222;2024-02-14T10:00:40;99964.66;;;-141.02;100.00
8477;BME280;4275;42.854;23.222;2024-02-14T10:03:08;99964.66;;;-141.02;100.00
8477;BME280;4275;42.854;23.222;2024-02-14T10:05:36;99964.66;;;-141.02;100.00
8477;BME280;4275;42.854;23.222;2024-02-14T10:08:03;99714.81;;;-141.02;100.00
8477;BME280;4275;42.854;23.222;2024-02-14T10:10:33;99215.16;;;-141.02;100.00
8477;BME280;4275;42.854;23.222;2024-02-14T10:13:06;99215.16;;;-141.02;100.00
8477;BME280;4275;42.854;23.222;2024-02-14T10:15:32;99215.16;;;-141.02;100.00
8477;BME280;4275;42.854;23.222;2024-02-14T10:17:59;98715.56;;;-141.02;100.00
8477;BME280;4275;42.854;23.222;2024-02-14T10:20:26;98715.56;;;-141.02;100.00
8477;BME280;4275;42.854;23.222;2024-02-14T10:23:00;97966.31;;;-141.02;100.00
8477;BME280;4275;42.854;23.222;2024-02-14T10:25:42;98216.03;;;-141.02;100.00
8477;BME280;4275;42.854;23.222;2024-02-14T10:28:11;97966.31;;;-141.02;100.00
8477;BME280;4275;42.854;23.222;2024-02-14T10:30:38;98216.03;;;-141.02;100.00
8477;BME280;4275;42.854;23.222;2024-02-14T10:33:06;97716.59;;;-141.02;100.00
8477;BME280;4275;42.854;23.222;2024-02-14T10:35:35;97966.31;;;-141.02;100.00
8477;BME280;4275;42.854;23.222;2024-02-14T10:38:03;97716.59;;;-141.02;100.00
8477;BME280;4275;42.854;23.222;2024-02-14T10:40:32;97466.91;;;-141.02;100.00
8477;BME280;4275;42.854;23.222;2024-02-14T10:42:59;97716.59;;;-141.02;100.00
8477;BME280;4275;42.854;23.222;2024-02-14T10:45:28;97716.59;;;-141.02;100.00
8477;BME280;4275;42.854;23.222;2024-02-14T10:47:56;97716.59;;;-141.02;100.00
8477;BME280;4275;42.854;23.222;2024-02-14T10:50:46;97466.91;;;-141.02;100.00
8477;BME280;4275;42.854;23.222;2024-02-14T10:53:16;97217.22;;;-141.02;100.00
8477;BME280;4275;42.854;23.222;2024-02-14T10:55:46;97217.22;;;-141.02;100.00
8477;BME280;4275;42.854;23.222;2024-02-14T10:58:16;97466.91;;;-141.02;100.00
8477;BME280;4275;42.854;23.222;2024-02-14T11:00:45;97466.91;;;-141.02;100.00
8477;BME280;4275;42.854;23.222;2024-02-14T11:03:12;97716.59;;;-141.02;100.00
8477;BME280;4275;42.854;23.222;2024-02-14T11:05:44;97217.22;;;-141.02;100.00
8477;BME280;4275;42.854;23.222;2024-02-14T11:08:13;97466.91;;;-141.02;100.00
8477;BME280;4275;42.854;23.222;2024-02-14T11:10:40;97466.91;;;-141.02;100.00
8477;BME280;4275;42.854;23.222;2024-02-14T11:13:10;97466.91;;;-141.02;100.00
8477;BME280;4275;42.854;23.222;2024-02-14T11:15:39;97466.91;;;-141.02;100.00
8477;BME280;4275;42.854;23.222;2024-02-14T11:18:08;97466.91;;;-141.02;100.00
8477;BME280;4275;42.854;23.222;2024-02-14T11:20:36;97217.22;;;-141.02;100.00
8477;BME280;4275;42.854;23.222;2024-02-14T11:23:07;97217.22;;;-141.02;100.00
8477;BME280;4275;42.854;23.222;2024-02-14T11:25:37;96967.56;;;-141.02;100.00
8477;BME280;4275;42.854;23.222;2024-02-14T11:28:13;96967.56;;;-141.02;100.00
8477;BME280;4275;42.854;23.222;2024-02-14T11:30:40;96717.94;;;-141.02;100.00
8477;BME280;4275;42.854;23.222;2024-02-14T11:33:17;96967.56;;;-141.02;100.00
8477;BME280;4275;42.854;23.222;2024-02-14T11:39:06;96717.94;;;-141.02;100.00
8477;BME280;4275;42.854;23.222;2024-02-14T11:41:33;96218.69;;;-141.02;100.00
8477;BME280;4275;42.854;23.222;2024-02-14T11:44:01;96468.31;;;-141.02;100.00
8477;BME280;4275;42.854;23.222;2024-02-14T11:46:30;96717.94;;;-141.02;100.00
8477;BME280;4275;42.854;23.222;2024-02-14T11:48:59;96717.94;;;-141.02;100.00
8477;BME280;4275;42.854;23.222;2024-02-14T11:51:28;96717.94;;;-141.02;100.00
8477;BME280;4275;42.854;23.222;2024-02-14T11:54:20;96717.94;;;-141.02;100.00
8477;BME280;4275;42.854;23.222;2024-02-14T11:56:47;96717.94;;;-141.02;100.00
8477;BME280;4275;42.854;23.222;2024-02-14T11:59:14;96717.94;;;-141.02;100.00
8477;BME280;4275;42.854;23.222;2024-02-14T12:01:45;96218.69;;;-141.02;99.64
8477;BME280;4275;42.854;23.222;2024-02-14T12:04:15;96218.69;;;-141.02;100.00
8477;BME280;4275;42.854;23.222;2024-02-14T12:06:43;96468.31;;;-141.02;100.00
8477;BME280;4275;42.854;23.222;2024-02-14T12:12:31;95969.13;;;-141.02;100.00
8477;BME280;4275;42.854;23.222;2024-02-14T12:15:09;96218.69;;;-141.02;100.00
8477;BME280;4275;42.854;23.222;2024-02-14T12:17:36;96468.31;;;-141.02;100.00
8477;BME280;4275;42.854;23.222;2024-02-14T12:20:10;95719.53;;;-141.02;98.46
8477;BME280;4275;42.854;23.222;2024-02-14T12:22:39;95719.53;;;-141.02;99.43
8477;BME280;4275;42.854;23.222;2024-02-14T12:25:08;96218.69;;;-141.02;99.94
8477;BME280;4275;42.854;23.222;2024-02-14T12:27:36;95719.53;;;-141.02;98.10
8477;BME280;4275;42.854;23.222;2024-02-14T12:30:04;95470.00;;;-141.02;96.84
8477;BME280;4275;42.854;23.222;2024-02-14T12:32:32;94970.94;;;-141.02;97.30
8477;BME280;4275;42.854;23.222;2024-02-14T12:34:59;94970.94;;;-141.02;98.99
8477;BME280;4275;42.854;23.222;2024-02-14T12:37:58;94222.50;;;-141.02;97.98
8477;BME280;4275;42.854;23.222;2024-02-14T12:40:25;94222.50;;;-141.02;98.94
8477;BME280;4275;42.854;23.222;2024-02-14T12:42:52;94471.97;;;-141.02;99.05
8477;BME280;4275;42.854;23.222;2024-02-14T12:45:19;94721.44;;;-141.02;100.00
8477;BME280;4275;42.854;23.222;2024-02-14T12:47:46;94970.94;;;-141.02;100.00
8477;BME280;4275;42.854;23.222;2024-02-14T12:50:13;94471.97;;;-141.02;97.96
8477;BME280;4275;42.854;23.222;2024-02-14T12:52:40;94471.97;;;-141.02;97.82
8477;BME280;4275;42.854;23.222;2024-02-14T12:55:11;94721.44;;;-141.02;98.76
8477;BME280;4275;42.854;23.222;2024-02-14T12:57:38;94471.97;;;-141.02;98.35
8477;BME280;4275;42.854;23.222;2024-02-14T13:00:06;94471.97;;;-141.02;97.79
8477;BME280;4275;42.854;23.222;2024-02-14T13:02:34;94222.50;;;-141.02;96.84
8477;BME280;4275;42.854;23.222;2024-02-14T13:08:23;94222.50;;;-141.02;98.43
8477;BME280;4275;42.854;23.222;2024-02-14T13:10:51;94471.97;;;-141.02;98.67
8477;BME280;4275;42.854;23.222;2024-02-14T13:13:18;93474.22;;;-141.02;96.41
8477;BME280;4275;42.854;23.222;2024-02-14T13:15:45;93973.06;;;-141.02;98.19
8477;BME280;4275;42.854;23.222;2024-02-14T13:18:12;93474.22;;;-141.02;93.91
8477;BME280;4275;42.854;23.222;2024-02-14T13:20:39;93973.06;;;-141.02;98.15
8477;BME280;4275;42.854;23.222;2024-02-14T13:23:07;93723.63;;;-141.02;95.57
8477;BME280;4275;42.854;23.222;2024-02-14T13:25:35;93474.22;;;-141.02;96.11
8477;BME280;4275;42.854;23.222;2024-02-14T13:28:04;93224.84;;;-141.02;94.21
8477;BME280;4275;42.854;23.222;2024-02-14T13:33:48;92975.47;;;-141.02;97.27
8477;BME280;4275;42.854;23.222;2024-02-14T13:36:15;92975.47;;;-141.02;96.25
8477;BME280;4275;42.854;23.222;2024-02-14T13:38:42;92975.47;;;-141.02;95.86
8477;BME280;4275;42.854;23.222;2024-02-14T13:41:09;92726.13;;;-141.02;93.66
8477;BME280;4275;42.854;23.222;2024-02-14T13:43:39;92975.47;;;-141.02;94.95
8477;BME280;4275;42.854;23.222;2024-02-14T13:46:07;92227.47;;;-141.02;92.72
8477;BME280;4275;42.854;23.222;2024-02-14T13:48:34;92975.47;;;-141.02;95.48
8477;BME280;4275;42.854;23.222;2024-02-14T13:51:01;92476.78;;;-141.02;95.31